createdAt,value
2023-04-27T00:00:44.446Z,6.38
2023-04-27T00:03:27.634Z,6.93
2023-04-27T00:06:03.160Z,6.30
2023-04-27T00:08:44.975Z,6.35
2023-04-27T00:11:16.411Z,5.82
2023-04-27T00:13:48.823Z,7.07
2023-04-27T00:16:46.456Z,7.30
2023-04-27T00:19:41.954Z,4.65
2023-04-27T00:22:20.054Z,6.00
2023-04-27T00:24:56.062Z,7.10
2023-04-27T00:27:41.795Z,4.82
2023-04-27T00:30:31.950Z,5.55
2023-04-27T00:33:05.494Z,5.88
2023-04-27T00:36:13.434Z,4.07
2023-04-27T00:39:09.416Z,4.50
2023-04-27T00:41:41.771Z,6.28
2023-04-27T00:44:12.846Z,5.38
2023-04-27T00:46:41.223Z,4.38
2023-04-27T00:49:21.352Z,5.10
2023-04-27T00:51:59.081Z,4.97
2023-04-27T00:54:50.153Z,5.63
2023-04-27T00:57:40.079Z,5.70
2023-04-27T01:00:38.418Z,5.13
2023-04-27T01:03:19.776Z,4.38
2023-04-27T01:05:56.760Z,4.60
2023-04-27T01:08:46.662Z,4.85
2023-04-27T01:11:39.614Z,5.18
2023-04-27T01:14:17.290Z,3.75
2023-04-27T01:17:08.138Z,5.47
2023-04-27T01:19:54.317Z,5.78
2023-04-27T01:23:00.012Z,5.10
2023-04-27T01:26:04.057Z,5.28
2023-04-27T01:28:46.252Z,4.38
2023-04-27T01:31:36.677Z,4.75
2023-04-27T01:34:24.008Z,4.28
2023-04-27T01:36:59.313Z,4.75
2023-04-27T01:39:44.042Z,3.40
2023-04-27T01:42:30.980Z,4.57
2023-04-27T01:45:02.618Z,4.80
2023-04-27T01:47:42.367Z,5.97
2023-04-27T01:50:33.760Z,4.65
2023-04-27T01:53:13.534Z,4.80
2023-04-27T01:55:54.614Z,6.47
2023-04-27T01:58:47.688Z,4.43
2023-04-27T02:01:29.930Z,5.55
2023-04-27T02:04:11.627Z,4.70
2023-04-27T02:06:48.663Z,4.25
2023-04-27T02:09:39.290Z,4.97
2023-04-27T02:12:29.058Z,4.35
2023-04-27T02:18:06.515Z,4.18
2023-04-27T02:20:56.956Z,4.45
2023-04-27T02:23:52.233Z,4.32
2023-04-27T02:26:29.670Z,5.90
2023-04-27T02:29:13.065Z,5.28
2023-04-27T02:32:19.492Z,5.00
2023-04-27T02:35:19.416Z,7.20
2023-04-27T02:38:05.108Z,6.68
2023-04-27T02:40:59.217Z,5.72
2023-04-27T02:43:46.958Z,8.18
2023-04-27T02:46:19.010Z,7.65
2023-04-27T02:49:03.733Z,7.22
2023-04-27T02:52:04.632Z,6.25
2023-04-27T02:54:51.912Z,6.50
2023-04-27T02:57:36.786Z,7.32
2023-04-27T03:00:22.776Z,8.20
2023-04-27T03:03:05.851Z,8.40
2023-04-27T03:06:08.011Z,7.47
2023-04-27T03:11:37.534Z,9.93
2023-04-27T03:14:25.633Z,9.82
2023-04-27T03:17:23.495Z,7.78
2023-04-27T03:19:59.313Z,7.50
2023-04-27T03:22:49.118Z,9.10
2023-04-27T03:25:27.209Z,6.70
2023-04-27T03:28:14.581Z,6.35
2023-04-27T03:30:53.723Z,7.18
2023-04-27T03:33:32.121Z,6.60
2023-04-27T03:36:09.094Z,6.78
2023-04-27T03:38:44.766Z,6.30
2023-04-27T03:41:18.205Z,6.20
2023-04-27T03:43:53.902Z,5.35
2023-04-27T03:46:24.047Z,6.10
2023-04-27T03:49:00.107Z,6.47
2023-04-27T03:51:37.359Z,5.25
2023-04-27T03:54:18.037Z,5.38
2023-04-27T03:56:48.033Z,6.10
2023-04-27T03:59:21.809Z,9.30
2023-04-27T04:01:52.371Z,6.65
2023-04-27T04:04:27.209Z,5.50
2023-04-27T04:07:11.495Z,4.85
2023-04-27T04:09:42.742Z,5.95
2023-04-27T04:12:10.731Z,6.80
2023-04-27T04:14:50.034Z,5.85
2023-04-27T04:17:19.278Z,5.40
2023-04-27T04:19:50.225Z,5.88
2023-04-27T04:22:18.294Z,7.57
2023-04-27T04:24:59.162Z,7.20
2023-04-27T04:27:27.215Z,8.00
2023-04-27T04:30:05.075Z,5.78
2023-04-27T04:32:41.774Z,7.03
2023-04-27T04:35:15.861Z,6.63
2023-04-27T04:37:43.907Z,6.13
2023-04-27T04:40:17.180Z,6.50
2023-04-27T04:42:51.229Z,6.10
2023-04-27T04:45:21.595Z,6.45
2023-04-27T04:47:58.371Z,7.13
2023-04-27T04:50:35.981Z,6.40
2023-04-27T04:53:28.163Z,7.72
2023-04-27T04:55:59.103Z,4.97
2023-04-27T04:58:26.942Z,5.25
2023-04-27T05:00:54.906Z,6.07
2023-04-27T05:03:23.171Z,5.40
2023-04-27T05:05:51.421Z,5.40
2023-04-27T05:08:22.085Z,6.18
2023-04-27T05:11:01.509Z,6.05
2023-04-27T05:13:33.925Z,6.22
2023-04-27T05:16:05.146Z,5.85
2023-04-27T05:18:33.170Z,5.47
2023-04-27T05:21:01.475Z,6.32
2023-04-27T05:23:30.624Z,5.18
2023-04-27T05:26:03.306Z,5.65
2023-04-27T05:28:34.180Z,5.07
2023-04-27T05:31:06.395Z,5.95
2023-04-27T05:33:34.425Z,4.70
2023-04-27T05:36:04.444Z,6.90
2023-04-27T05:38:37.610Z,7.03
2023-04-27T05:41:10.347Z,4.57
2023-04-27T05:43:44.367Z,6.45
2023-04-27T05:46:22.409Z,6.68
2023-04-27T05:48:52.356Z,5.53
2023-04-27T05:51:24.742Z,7.10
2023-04-27T05:53:58.232Z,5.20
2023-04-27T05:56:28.690Z,7.47
2023-04-27T05:58:56.756Z,12.00
2023-04-27T06:01:28.160Z,12.90
2023-04-27T06:04:01.520Z,11.38
2023-04-27T06:06:35.863Z,14.50
2023-04-27T06:09:04.079Z,7.70
2023-04-27T06:24:05.319Z,9.68
2023-04-27T06:26:52.590Z,9.15
2023-04-27T06:30:33.801Z,10.00
2023-04-27T06:32:51.113Z,13.70
2023-04-27T06:36:04.995Z,8.63
2023-04-27T06:39:36.179Z,9.90
2023-04-27T06:42:43.810Z,10.23
2023-04-27T06:46:05.501Z,6.65
2023-04-27T06:50:18.708Z,6.68
2023-04-27T06:52:43.709Z,7.60
2023-04-27T06:56:28.622Z,6.40
2023-04-27T06:59:04.018Z,6.15
2023-04-27T07:02:00.507Z,9.50
2023-04-27T07:04:33.499Z,4.88
2023-04-27T07:07:52.650Z,5.47
2023-04-27T07:11:05.315Z,5.18
2023-04-27T07:17:32.043Z,6.10
2023-04-27T07:20:37.050Z,4.70
2023-04-27T07:23:26.389Z,3.42
2023-04-27T07:29:31.837Z,6.32
2023-04-27T07:32:24.175Z,3.75
2023-04-27T07:35:14.404Z,4.18
2023-04-27T07:38:59.778Z,4.15
2023-04-27T07:45:18.096Z,5.45
2023-04-27T07:48:12.304Z,4.18
2023-04-27T09:01:15.575Z,4.43
2023-04-27T09:27:31.780Z,3.05
2023-04-27T10:51:15.183Z,2.53
2023-04-27T11:03:34.260Z,4.40
2023-04-27T11:06:05.846Z,2.85
2023-04-27T11:08:34.137Z,3.38
2023-04-27T11:11:02.302Z,3.45
2023-04-27T11:13:30.987Z,2.88
2023-04-27T11:16:01.144Z,2.35
2023-04-27T11:18:33.213Z,2.47
2023-04-27T11:21:10.662Z,3.75
2023-04-27T11:23:40.015Z,3.30
2023-04-27T11:26:11.742Z,1.80
2023-04-27T11:28:40.053Z,2.92
2023-04-27T11:31:08.654Z,3.03
2023-04-27T11:33:36.764Z,2.97
2023-04-27T11:36:05.359Z,2.70
2023-04-27T11:38:38.192Z,2.83
2023-04-27T11:41:07.526Z,18.65
2023-04-27T11:43:36.238Z,17.15
2023-04-27T11:46:04.585Z,34.83
2023-04-27T11:48:33.723Z,31.63
2023-04-27T11:51:21.862Z,16.38
2023-04-27T11:53:52.351Z,14.63
2023-04-27T11:56:36.280Z,14.70
2023-04-27T12:07:19.409Z,8.15
2023-04-27T12:10:00.906Z,5.38
2023-04-27T12:12:54.289Z,9.93
2023-04-27T12:15:24.955Z,4.25
2023-04-27T12:18:09.428Z,7.53
2023-04-27T12:20:54.159Z,4.53
2023-04-27T12:23:22.523Z,6.53
2023-04-27T12:25:52.126Z,5.05
2023-04-27T12:28:20.713Z,6.72
2023-04-27T12:30:49.861Z,5.22
2023-04-27T12:33:18.301Z,5.90
2023-04-27T12:35:48.628Z,6.30
2023-04-27T12:38:16.952Z,3.30
2023-04-27T12:40:52.588Z,8.57
2023-04-27T12:43:58.908Z,7.90
2023-04-27T12:46:30.627Z,6.18
2023-04-27T12:49:14.808Z,6.38
2023-04-27T12:52:02.073Z,4.93
2023-04-27T12:54:40.415Z,3.92
2023-04-27T13:38:16.538Z,3.67
2023-04-27T13:45:06.807Z,2.92
2023-04-27T13:51:56.419Z,3.75
2023-04-27T14:10:34.569Z,2.33
2023-04-27T14:13:31.277Z,1.75
2023-04-27T14:16:56.708Z,2.80
2023-04-27T14:20:02.588Z,3.05
2023-04-27T14:22:45.381Z,2.40
2023-04-27T15:19:45.485Z,2.75
2023-04-27T15:29:36.561Z,2.95
2023-04-27T15:32:00.411Z,2.13
2023-04-27T15:34:54.476Z,2.72
2023-04-27T15:37:36.435Z,3.13
2023-04-27T15:54:21.277Z,1.98
2023-04-27T16:08:34.205Z,1.92
2023-04-27T16:11:37.695Z,1.95
2023-04-27T16:14:38.715Z,2.80
2023-04-27T16:17:42.584Z,3.60
2023-04-27T16:20:36.598Z,2.97
2023-04-27T16:23:21.496Z,2.85
2023-04-27T16:26:03.305Z,2.10
2023-04-27T16:28:32.844Z,2.35
2023-04-27T16:31:11.014Z,3.15
2023-04-27T16:33:58.402Z,1.80
2023-04-27T16:36:55.662Z,3.40
2023-04-27T16:39:39.729Z,2.95
2023-04-27T16:42:15.102Z,2.00
2023-04-27T16:45:09.125Z,2.92
2023-04-27T16:48:12.897Z,2.25
2023-04-27T16:51:40.291Z,3.20
2023-04-27T16:59:01.037Z,3.25
2023-04-27T17:01:26.093Z,2.80
2023-04-27T18:51:51.400Z,3.70
2023-04-27T18:54:20.813Z,3.53
2023-04-27T18:56:53.857Z,2.42
2023-04-27T18:59:30.282Z,2.30
2023-04-27T19:02:04.768Z,3.33
2023-04-27T19:04:45.482Z,2.67
2023-04-27T19:07:29.196Z,3.20
2023-04-27T19:10:03.593Z,2.22
2023-04-27T19:12:36.120Z,2.53
2023-04-27T19:15:05.284Z,4.22
2023-04-27T19:17:36.601Z,2.00
2023-04-27T19:20:07.503Z,3.72
2023-04-27T19:22:45.100Z,3.25
2023-04-27T19:25:16.070Z,2.20
2023-04-27T19:27:48.716Z,3.65
2023-04-27T19:30:17.612Z,2.30
2023-04-27T19:32:57.386Z,3.25
2023-04-27T19:35:27.660Z,2.88
2023-04-27T19:38:01.208Z,3.03
2023-04-27T19:40:29.940Z,2.67
2023-04-27T19:42:58.431Z,2.72
2023-04-27T19:45:29.431Z,2.72
2023-04-27T19:48:00.065Z,3.00
2023-04-27T19:50:29.069Z,2.53
2023-04-27T19:53:00.664Z,3.35
2023-04-27T19:55:30.942Z,2.40
2023-04-27T19:58:02.168Z,3.28
2023-04-27T20:00:30.777Z,3.97
2023-04-27T20:03:01.185Z,1.83
2023-04-27T20:05:31.513Z,2.50
2023-04-27T20:08:04.283Z,4.30
2023-04-27T20:10:45.612Z,2.70
2023-04-27T20:13:17.444Z,2.40
2023-04-27T20:15:46.665Z,2.90
2023-04-27T20:18:14.996Z,2.97
2023-04-27T20:20:43.469Z,2.65
2023-04-27T20:23:13.065Z,2.67
2023-04-27T20:25:51.887Z,2.60
2023-04-27T20:28:20.388Z,2.65
2023-04-27T20:30:48.491Z,2.55
2023-04-27T20:33:16.597Z,1.90
2023-04-27T20:35:46.855Z,2.92
2023-04-27T20:38:16.449Z,2.78
2023-04-27T20:40:44.627Z,2.17
2023-04-27T20:43:13.445Z,2.78
2023-04-27T20:45:41.685Z,3.58
2023-04-27T20:48:11.858Z,2.97
2023-04-27T20:50:40.398Z,2.53
2023-04-27T20:53:08.634Z,2.40
2023-04-27T20:55:38.329Z,1.95
2023-04-27T20:58:06.343Z,2.72
2023-04-27T21:00:34.327Z,2.53
2023-04-27T21:03:02.613Z,3.33
2023-04-27T21:05:31.617Z,3.00
2023-04-27T21:07:59.883Z,2.72
2023-04-27T21:10:27.967Z,3.67
2023-04-27T21:12:57.518Z,2.40
2023-04-27T21:15:25.637Z,2.40
2023-04-27T21:17:53.642Z,2.13
2023-04-27T21:20:21.896Z,2.80
2023-04-27T21:22:49.826Z,3.08
2023-04-27T21:25:17.967Z,2.03
2023-04-27T21:27:46.081Z,2.38
2023-04-27T21:30:16.004Z,3.30
2023-04-27T21:32:43.968Z,2.25
2023-04-27T21:35:12.045Z,2.55
2023-04-27T21:37:39.972Z,3.15
2023-04-27T21:40:09.677Z,2.85
2023-04-27T21:42:37.718Z,2.47
2023-04-27T21:45:06.331Z,5.40
2023-04-27T21:47:35.754Z,2.83
2023-04-27T21:50:03.809Z,2.60
2023-04-27T21:52:31.756Z,3.65
2023-04-27T21:54:59.803Z,2.75
2023-04-27T21:57:27.749Z,2.50
2023-04-27T21:59:55.760Z,2.30
2023-04-27T22:02:23.950Z,2.50
2023-04-27T22:04:53.596Z,2.80
2023-04-27T22:07:21.676Z,3.15
2023-04-27T22:09:49.705Z,2.28
2023-04-27T22:12:17.733Z,2.75
2023-04-27T22:14:46.880Z,3.13
2023-04-27T22:17:15.186Z,2.85
2023-04-27T22:19:43.141Z,2.58
2023-04-27T22:22:12.530Z,2.47
2023-04-27T22:24:43.570Z,2.35
2023-04-27T22:27:11.479Z,2.08
2023-04-27T22:29:39.435Z,2.30
2023-04-27T22:32:07.880Z,2.67
2023-04-27T22:34:36.148Z,3.25
2023-04-27T22:37:04.140Z,3.25
2023-04-27T22:39:33.617Z,2.60
2023-04-27T22:42:01.611Z,2.15
2023-04-27T22:44:29.553Z,2.72
2023-04-27T22:46:57.546Z,2.40
2023-04-27T22:49:25.576Z,2.70
2023-04-27T22:51:53.990Z,3.10
2023-04-27T22:54:21.999Z,2.60
2023-04-27T22:56:51.426Z,3.75
2023-04-27T22:59:22.785Z,3.40
2023-04-27T23:01:51.606Z,2.20
2023-04-27T23:04:20.541Z,2.90
2023-04-27T23:06:48.995Z,3.13
2023-04-27T23:09:16.921Z,4.47
2023-04-27T23:11:44.853Z,2.53
2023-04-27T23:14:15.061Z,3.63
2023-04-27T23:16:44.635Z,3.72
2023-04-27T23:19:12.692Z,3.88
2023-04-27T23:21:40.640Z,2.65
2023-04-27T23:24:08.906Z,2.72
2023-04-27T23:26:36.819Z,2.50
2023-04-27T23:29:04.801Z,3.13
2023-04-27T23:31:34.260Z,4.38
2023-04-27T23:34:02.288Z,3.33
2023-04-27T23:36:30.808Z,2.88
2023-04-27T23:38:58.742Z,3.80
2023-04-27T23:41:26.733Z,2.85
2023-04-27T23:43:54.787Z,3.10
2023-04-27T23:46:22.762Z,2.88
2023-04-27T23:48:52.096Z,3.10
2023-04-27T23:51:20.856Z,2.97
2023-04-27T23:53:48.845Z,2.95
2023-04-27T23:56:18.061Z,3.67
2023-04-27T23:58:46.042Z,3.65
